createdAt,value
2018-04-24T00:00:19.322Z,65.40
2018-04-24T00:00:50.929Z,65.38
2018-04-24T00:01:22.514Z,65.48
2018-04-24T00:01:54.157Z,65.36
2018-04-24T00:02:25.769Z,65.54
2018-04-24T00:02:57.430Z,65.76
2018-04-24T00:03:29.000Z,65.62
2018-04-24T00:04:00.577Z,65.66
2018-04-24T00:04:32.162Z,65.59
2018-04-24T00:05:03.768Z,65.60
2018-04-24T00:05:35.348Z,65.62
2018-04-24T00:06:06.958Z,65.54
2018-04-24T00:06:38.550Z,65.56
2018-04-24T00:07:10.137Z,65.68
2018-04-24T00:07:41.741Z,65.68
2018-04-24T00:08:13.374Z,65.60
2018-04-24T00:08:44.954Z,65.60
2018-04-24T00:09:16.537Z,65.91
2018-04-24T00:09:48.128Z,65.98
2018-04-24T00:10:19.717Z,65.77
2018-04-24T00:10:51.288Z,66.51
2018-04-24T00:11:22.902Z,66.23
2018-04-24T00:11:54.494Z,66.01
2018-04-24T00:12:26.072Z,66.68
2018-04-24T00:12:57.690Z,66.64
2018-04-24T00:13:29.318Z,66.72
2018-04-24T00:14:00.895Z,66.65
2018-04-24T00:14:32.510Z,66.88
2018-04-24T00:15:04.116Z,66.85
2018-04-24T00:15:35.719Z,66.71
2018-04-24T00:16:07.308Z,67.01
2018-04-24T00:16:38.901Z,66.99
2018-04-24T00:17:10.525Z,67.22
2018-04-24T00:17:42.120Z,66.97
2018-04-24T00:18:13.761Z,66.92
2018-04-24T00:18:45.369Z,67.18
2018-04-24T00:19:16.952Z,66.75
2018-04-24T00:19:48.530Z,67.27
2018-04-24T00:20:20.142Z,67.19
2018-04-24T00:20:51.744Z,67.28
2018-04-24T00:21:23.337Z,67.05
2018-04-24T00:21:54.921Z,67.28
2018-04-24T00:22:26.549Z,67.25
2018-04-24T00:22:58.138Z,67.26
2018-04-24T00:23:29.734Z,67.18
2018-04-24T00:24:01.342Z,67.05
2018-04-24T00:24:32.954Z,67.08
2018-04-24T00:25:04.576Z,67.03
2018-04-24T00:25:36.186Z,66.88
2018-04-24T00:26:07.818Z,67.16
2018-04-24T00:26:39.396Z,66.89
2018-04-24T00:27:11.011Z,66.81
2018-04-24T00:27:42.629Z,66.92
2018-04-24T00:28:14.263Z,66.99
2018-04-24T00:28:45.865Z,66.78
2018-04-24T00:29:17.436Z,66.96
2018-04-24T00:29:49.012Z,67.01
2018-04-24T00:30:20.590Z,66.69
2018-04-24T00:30:52.205Z,66.89
2018-04-24T00:31:23.790Z,66.58
2018-04-24T00:31:55.397Z,66.71
2018-04-24T00:32:26.990Z,66.46
2018-04-24T00:32:58.586Z,66.69
2018-04-24T00:33:30.241Z,66.40
2018-04-24T00:34:01.856Z,66.45
2018-04-24T00:34:33.446Z,66.34
2018-04-24T00:35:05.168Z,66.35
2018-04-24T00:35:36.768Z,66.52
2018-04-24T00:36:08.350Z,66.26
2018-04-24T00:36:39.962Z,66.29
2018-04-24T00:37:11.574Z,66.29
2018-04-24T00:37:43.186Z,66.29
2018-04-24T00:38:14.797Z,66.39
2018-04-24T00:38:46.446Z,66.23
2018-04-24T00:39:18.048Z,66.24
2018-04-24T00:39:49.630Z,66.28
2018-04-24T00:40:21.201Z,66.27
2018-04-24T00:40:52.806Z,66.25
2018-04-24T00:41:24.470Z,66.21
2018-04-24T00:41:56.072Z,66.30
2018-04-24T00:42:27.687Z,66.03
2018-04-24T00:42:59.262Z,65.95
2018-04-24T00:43:30.848Z,66.16
2018-04-24T00:44:02.439Z,66.13
2018-04-24T00:44:34.028Z,66.39
2018-04-24T00:45:05.610Z,66.11
2018-04-24T00:45:37.190Z,66.06
2018-04-24T00:46:08.795Z,66.04
2018-04-24T00:46:40.431Z,66.01
2018-04-24T00:47:12.039Z,65.94
2018-04-24T00:47:43.626Z,65.87
2018-04-24T00:48:15.220Z,65.80
2018-04-24T00:48:46.806Z,65.92
2018-04-24T00:49:18.414Z,65.79
2018-04-24T00:49:50.021Z,65.69
2018-04-24T00:50:21.631Z,65.73
2018-04-24T00:50:53.238Z,65.75
2018-04-24T00:51:24.874Z,65.70
2018-04-24T00:51:56.460Z,65.63
2018-04-24T00:52:28.074Z,65.96
2018-04-24T00:52:59.691Z,65.77
2018-04-24T00:53:31.330Z,65.84
2018-04-24T00:54:02.908Z,65.67
2018-04-24T00:54:34.494Z,65.68
2018-04-24T00:55:06.082Z,65.53
2018-04-24T00:55:37.696Z,65.54
2018-04-24T00:56:09.290Z,65.55
2018-04-24T00:56:40.888Z,65.70
2018-04-24T00:57:12.468Z,65.36
2018-04-24T00:57:44.065Z,65.49
2018-04-24T00:58:15.676Z,65.50
2018-04-24T00:58:47.322Z,65.47
2018-04-24T00:59:18.925Z,65.67
2018-04-24T00:59:50.500Z,65.71
2018-04-24T01:00:22.092Z,65.75
2018-04-24T01:00:53.677Z,65.55
2018-04-24T01:01:25.258Z,65.37
2018-04-24T01:01:56.862Z,65.42
2018-04-24T01:02:28.464Z,65.45
2018-04-24T01:03:00.078Z,65.47
2018-04-24T01:03:31.729Z,65.41
2018-04-24T01:04:03.304Z,65.49
2018-04-24T01:04:34.896Z,65.48
2018-04-24T01:05:06.480Z,65.68
2018-04-24T01:05:38.066Z,65.90
2018-04-24T01:06:09.678Z,65.89
2018-04-24T01:06:41.271Z,65.83
2018-04-24T01:07:12.884Z,65.93
2018-04-24T01:07:44.456Z,65.76
2018-04-24T01:08:16.066Z,65.83
2018-04-24T01:08:47.693Z,65.67
2018-04-24T01:09:19.264Z,65.62
2018-04-24T01:09:50.864Z,65.66
2018-04-24T01:10:22.509Z,65.58
2018-04-24T01:10:54.104Z,65.60
2018-04-24T01:11:25.714Z,65.65
2018-04-24T01:11:57.299Z,65.60
2018-04-24T01:12:28.886Z,65.64
2018-04-24T01:13:00.474Z,65.54
2018-04-24T01:13:32.082Z,65.71
2018-04-24T01:14:03.718Z,65.69
2018-04-24T01:14:35.297Z,65.49
2018-04-24T01:15:06.902Z,65.63
2018-04-24T01:15:38.500Z,65.54
2018-04-24T01:16:10.158Z,65.44
2018-04-24T01:16:41.736Z,65.56
2018-04-24T01:17:13.308Z,65.47
2018-04-24T01:17:44.908Z,65.32
2018-04-24T01:18:16.504Z,65.38
2018-04-24T01:18:48.107Z,65.47
2018-04-24T01:19:19.713Z,65.49
2018-04-24T01:19:51.322Z,65.34
2018-04-24T01:20:22.910Z,65.37
2018-04-24T01:20:54.494Z,65.52
2018-04-24T01:21:26.157Z,65.46
2018-04-24T01:21:57.796Z,65.52
2018-04-24T01:22:29.380Z,65.42
2018-04-24T01:23:00.979Z,65.69
2018-04-24T01:23:32.585Z,65.32
2018-04-24T01:24:04.189Z,65.32
2018-04-24T01:24:35.784Z,65.32
2018-04-24T01:25:07.415Z,65.35
2018-04-24T01:25:39.013Z,65.48
2018-04-24T01:26:10.602Z,65.35
2018-04-24T01:26:42.173Z,65.57
2018-04-24T01:27:13.764Z,65.37
2018-04-24T01:27:45.339Z,65.31
2018-04-24T01:28:16.961Z,65.36
2018-04-24T01:28:48.571Z,65.24
2018-04-24T01:29:20.148Z,65.40
2018-04-24T01:29:51.747Z,65.39
2018-04-24T01:30:23.337Z,65.50
2018-04-24T01:30:54.912Z,65.89
2018-04-24T01:31:26.514Z,65.51
2018-04-24T01:31:58.102Z,65.59
2018-04-24T01:32:29.701Z,65.57
2018-04-24T01:33:01.356Z,65.60
2018-04-24T01:33:32.928Z,65.61
2018-04-24T01:34:04.534Z,65.67
2018-04-24T01:34:36.142Z,65.53
2018-04-24T01:35:07.760Z,65.63
2018-04-24T01:35:39.349Z,65.73
2018-04-24T01:36:10.929Z,65.62
2018-04-24T01:36:42.525Z,65.64
2018-04-24T01:37:14.162Z,65.59
2018-04-24T01:37:45.750Z,65.48
2018-04-24T01:38:17.337Z,65.62
2018-04-24T01:38:48.926Z,65.58
2018-04-24T01:39:20.521Z,65.52
2018-04-24T01:39:52.126Z,65.48
2018-04-24T01:40:23.738Z,65.61
2018-04-24T01:40:55.336Z,65.43
2018-04-24T01:41:26.908Z,65.79
2018-04-24T01:41:58.501Z,65.79
2018-04-24T01:42:30.143Z,65.44
2018-04-24T01:43:01.722Z,65.46
2018-04-24T01:43:33.320Z,65.49
2018-04-24T01:44:04.910Z,65.68
2018-04-24T01:44:36.490Z,65.48
2018-04-24T01:45:08.089Z,65.53
2018-04-24T01:45:39.697Z,65.60
2018-04-24T01:46:11.283Z,65.74
2018-04-24T01:46:42.890Z,65.58
2018-04-24T01:47:14.505Z,65.55
2018-04-24T01:47:46.156Z,65.62
2018-04-24T01:48:17.774Z,65.59
2018-04-24T01:48:49.377Z,65.58
2018-04-24T01:49:20.962Z,65.55
2018-04-24T01:49:52.551Z,65.52
2018-04-24T01:50:24.145Z,65.62
2018-04-24T01:50:55.722Z,65.63
2018-04-24T01:51:27.305Z,65.44
2018-04-24T01:51:58.956Z,65.69
2018-04-24T01:52:30.524Z,65.64
2018-04-24T01:53:02.115Z,65.63
2018-04-24T01:53:33.688Z,65.63
2018-04-24T01:54:05.261Z,65.70
2018-04-24T01:54:36.861Z,65.58
2018-04-24T01:55:08.455Z,65.61
2018-04-24T01:55:40.047Z,65.47
2018-04-24T01:56:11.640Z,65.48
2018-04-24T01:56:43.226Z,65.67
2018-04-24T01:57:14.854Z,65.68
2018-04-24T01:57:46.424Z,65.80
2018-04-24T01:58:18.002Z,65.77
2018-04-24T01:58:49.587Z,66.03
2018-04-24T01:59:21.171Z,65.84
2018-04-24T01:59:52.744Z,65.90
2018-04-24T02:00:24.381Z,66.01
2018-04-24T02:00:55.960Z,66.08
2018-04-24T02:01:27.532Z,66.20
2018-04-24T02:01:59.173Z,66.10
2018-04-24T02:02:30.812Z,66.14
2018-04-24T02:03:02.405Z,66.22
2018-04-24T02:03:33.996Z,66.24
2018-04-24T02:04:05.610Z,66.23
2018-04-24T02:04:37.220Z,66.08
2018-04-24T02:05:09.125Z,66.27
2018-04-24T02:05:40.733Z,66.21
2018-04-24T02:06:12.318Z,66.09
2018-04-24T02:06:43.926Z,66.13
2018-04-24T02:07:15.533Z,66.08
2018-04-24T02:07:47.141Z,66.00
2018-04-24T02:08:18.740Z,65.92
2018-04-24T02:08:50.333Z,66.10
2018-04-24T02:09:21.929Z,65.92
2018-04-24T02:09:53.517Z,66.04
2018-04-24T02:10:25.155Z,65.97
2018-04-24T02:10:56.761Z,66.10
2018-04-24T02:11:28.353Z,66.22
2018-04-24T02:11:59.962Z,66.28
2018-04-24T02:12:31.562Z,66.17
2018-04-24T02:13:03.180Z,66.24
2018-04-24T02:13:34.786Z,66.17
2018-04-24T02:14:06.409Z,66.11
2018-04-24T02:14:38.018Z,66.01
2018-04-24T02:15:09.617Z,65.85
2018-04-24T02:15:41.267Z,66.16
2018-04-24T02:16:12.857Z,66.06
2018-04-24T02:16:44.461Z,65.94
2018-04-24T02:17:16.056Z,65.92
2018-04-24T02:17:47.641Z,66.11
2018-04-24T02:18:19.270Z,66.20
2018-04-24T02:18:50.877Z,66.03
2018-04-24T02:19:22.490Z,66.01
2018-04-24T02:19:54.092Z,66.04
2018-04-24T02:20:25.770Z,65.97
2018-04-24T02:20:57.374Z,65.80
2018-04-24T02:21:28.961Z,66.03
2018-04-24T02:22:00.566Z,66.12
2018-04-24T02:22:32.209Z,65.90
2018-04-24T02:23:03.809Z,65.79
2018-04-24T02:23:35.424Z,65.82
2018-04-24T02:24:07.001Z,65.80
2018-04-24T02:24:38.614Z,65.71
2018-04-24T02:25:10.261Z,65.67
2018-04-24T02:25:41.878Z,65.59
2018-04-24T02:26:13.463Z,65.61
2018-04-24T02:26:45.055Z,65.60
2018-04-24T02:27:16.662Z,65.79
2018-04-24T02:27:48.246Z,65.59
2018-04-24T02:28:19.895Z,65.83
2018-04-24T02:28:51.505Z,65.71
2018-04-24T02:29:23.114Z,65.85
2018-04-24T02:29:54.726Z,65.72
2018-04-24T02:30:26.314Z,65.80
2018-04-24T02:30:57.894Z,65.98
2018-04-24T02:31:29.488Z,66.11
2018-04-24T02:32:01.065Z,66.05
2018-04-24T02:32:32.656Z,66.10
2018-04-24T02:33:04.306Z,65.95
2018-04-24T02:33:35.913Z,66.22
2018-04-24T02:34:07.494Z,66.18
2018-04-24T02:34:39.084Z,66.09
2018-04-24T02:35:10.677Z,65.99
2018-04-24T02:35:42.259Z,65.90
2018-04-24T02:36:13.872Z,65.87
2018-04-24T02:36:45.460Z,65.71
2018-04-24T02:37:17.042Z,65.91
2018-04-24T02:37:48.651Z,66.05
2018-04-24T02:38:20.282Z,65.90
2018-04-24T02:38:51.892Z,65.85
2018-04-24T02:39:23.478Z,65.94
2018-04-24T02:39:55.068Z,65.64
2018-04-24T02:40:26.698Z,65.78
2018-04-24T02:40:58.314Z,65.87
2018-04-24T02:41:29.926Z,65.47
2018-04-24T02:42:01.530Z,65.43
2018-04-24T02:42:33.186Z,65.49
2018-04-24T02:43:04.764Z,65.66
2018-04-24T02:43:36.350Z,65.45
2018-04-24T02:44:07.938Z,65.50
2018-04-24T02:44:39.519Z,65.53
2018-04-24T02:45:11.258Z,65.45
2018-04-24T02:45:42.856Z,65.50
2018-04-24T02:46:14.470Z,65.58
2018-04-24T02:46:46.077Z,65.50
2018-04-24T02:47:17.665Z,65.51
2018-04-24T02:47:49.282Z,65.55
2018-04-24T02:48:20.898Z,65.57
2018-04-24T02:48:52.490Z,65.52
2018-04-24T02:49:24.145Z,65.49
2018-04-24T02:49:55.750Z,65.47
2018-04-24T02:50:27.357Z,65.40
2018-04-24T02:50:58.946Z,65.27
2018-04-24T02:51:30.534Z,65.25
2018-04-24T02:52:02.114Z,64.98
2018-04-24T02:52:33.713Z,65.47
2018-04-24T02:53:05.327Z,65.04
2018-04-24T02:53:36.921Z,65.56
2018-04-24T02:54:08.506Z,65.38
2018-04-24T02:54:40.136Z,64.95
2018-04-24T02:55:11.721Z,64.75
2018-04-24T02:55:43.305Z,64.82
2018-04-24T02:56:14.876Z,65.05
2018-04-24T02:56:46.482Z,64.97
2018-04-24T02:57:18.093Z,64.99
2018-04-24T02:57:49.687Z,64.90
2018-04-24T02:58:21.270Z,64.83
2018-04-24T02:58:52.877Z,64.88
2018-04-24T02:59:24.466Z,64.97
2018-04-24T02:59:56.094Z,64.93
2018-04-24T03:00:27.677Z,64.91
2018-04-24T03:00:59.294Z,64.46
2018-04-24T03:01:30.892Z,64.37
2018-04-24T03:02:02.472Z,64.59
2018-04-24T03:02:34.069Z,64.54
2018-04-24T03:03:05.696Z,64.50
2018-04-24T03:03:37.314Z,64.48
2018-04-24T03:04:08.928Z,64.43
2018-04-24T03:04:40.568Z,64.35
2018-04-24T03:05:12.159Z,64.44
2018-04-24T03:05:43.775Z,64.47
2018-04-24T03:06:15.380Z,64.47
2018-04-24T03:06:46.971Z,64.46
2018-04-24T03:07:18.549Z,64.54
2018-04-24T03:07:50.206Z,64.50
2018-04-24T03:08:21.821Z,64.49
2018-04-24T03:08:53.409Z,64.58
2018-04-24T03:09:25.017Z,64.47
2018-04-24T03:09:56.606Z,64.51
2018-04-24T03:10:28.218Z,64.48
2018-04-24T03:10:59.878Z,64.39
2018-04-24T03:11:31.461Z,64.47
2018-04-24T03:12:03.074Z,64.44
2018-04-24T03:12:34.662Z,64.40
2018-04-24T03:13:06.305Z,64.35
2018-04-24T03:13:37.918Z,64.38
2018-04-24T03:14:09.526Z,64.36
2018-04-24T03:14:41.100Z,64.35
2018-04-24T03:15:12.689Z,64.39
2018-04-24T03:15:44.281Z,64.40
2018-04-24T03:16:15.870Z,64.42
2018-04-24T03:16:47.470Z,64.37
2018-04-24T03:17:19.099Z,64.41
2018-04-24T03:17:50.696Z,64.36
2018-04-24T03:18:22.286Z,64.35
2018-04-24T03:18:53.863Z,64.34
2018-04-24T03:19:25.467Z,64.28
2018-04-24T03:19:57.127Z,64.27
2018-04-24T03:20:28.704Z,64.27
2018-04-24T03:21:00.314Z,64.26
2018-04-24T03:21:31.902Z,64.15
2018-04-24T03:22:03.502Z,64.13
2018-04-24T03:22:35.113Z,64.05
2018-04-24T03:23:06.726Z,64.07
2018-04-24T03:23:38.310Z,63.95
2018-04-24T03:24:09.894Z,63.93
2018-04-24T03:24:41.478Z,63.86
2018-04-24T03:25:13.109Z,63.90
2018-04-24T03:25:44.710Z,63.85
2018-04-24T03:26:16.297Z,63.83
2018-04-24T03:26:47.882Z,63.76
2018-04-24T03:27:19.471Z,63.77
2018-04-24T03:27:51.078Z,63.75
2018-04-24T03:28:22.682Z,63.71
2018-04-24T03:28:54.281Z,63.67
2018-04-24T03:29:25.862Z,63.60
2018-04-24T03:29:57.496Z,63.63
2018-04-24T03:30:29.078Z,63.63
2018-04-24T03:31:00.672Z,63.60
2018-04-24T03:31:32.289Z,63.52
2018-04-24T03:32:03.897Z,63.45
2018-04-24T03:32:35.481Z,63.42
2018-04-24T03:33:07.105Z,63.38
2018-04-24T03:33:38.684Z,63.31
2018-04-24T03:34:10.295Z,63.30
2018-04-24T03:34:41.937Z,63.29
2018-04-24T03:35:13.516Z,63.33
2018-04-24T03:35:45.118Z,63.30
2018-04-24T03:36:16.704Z,63.28
2018-04-24T03:36:48.314Z,63.31
2018-04-24T03:37:19.903Z,63.24
2018-04-24T03:37:51.553Z,63.20
2018-04-24T03:38:23.150Z,63.14
2018-04-24T03:38:54.730Z,63.07
2018-04-24T03:39:26.333Z,63.05
2018-04-24T03:39:57.937Z,63.03
2018-04-24T03:40:29.512Z,63.04
2018-04-24T03:41:01.084Z,63.03
2018-04-24T03:41:32.698Z,62.98
2018-04-24T03:42:04.282Z,62.98
2018-04-24T03:42:35.874Z,63.02
2018-04-24T03:43:07.510Z,62.97
2018-04-24T03:43:39.107Z,62.96
2018-04-24T03:44:10.698Z,62.86
2018-04-24T03:44:42.277Z,62.86
2018-04-24T03:45:13.874Z,62.90
2018-04-24T03:45:45.470Z,62.88
2018-04-24T03:46:17.073Z,62.88
2018-04-24T03:46:48.662Z,62.80
2018-04-24T03:47:20.284Z,62.76
2018-04-24T03:47:51.868Z,62.79
2018-04-24T03:48:23.464Z,62.80
2018-04-24T03:48:55.069Z,62.78
2018-04-24T03:49:26.679Z,62.76
2018-04-24T03:49:58.286Z,62.73
2018-04-24T03:50:29.856Z,62.74
2018-04-24T03:51:01.452Z,62.71
2018-04-24T03:51:33.036Z,62.68
2018-04-24T03:52:04.622Z,62.68
2018-04-24T03:52:36.258Z,62.64
2018-04-24T03:53:07.847Z,62.70
2018-04-24T03:53:39.444Z,62.72
2018-04-24T03:54:11.016Z,62.69
2018-04-24T03:54:42.610Z,62.68
2018-04-24T03:55:14.225Z,62.75
2018-04-24T03:55:45.825Z,62.73
2018-04-24T03:56:17.423Z,62.69
2018-04-24T03:56:49.020Z,62.70
2018-04-24T03:57:20.615Z,62.73
2018-04-24T03:57:52.283Z,62.74
2018-04-24T03:58:23.887Z,62.72
2018-04-24T03:58:55.478Z,62.66
2018-04-24T03:59:27.062Z,62.67
2018-04-24T03:59:58.666Z,62.63
2018-04-24T04:00:30.265Z,62.57
2018-04-24T04:01:01.854Z,62.65
2018-04-24T04:01:33.465Z,62.68
2018-04-24T04:02:05.077Z,62.63
2018-04-24T04:02:36.662Z,62.64
2018-04-24T04:03:08.310Z,62.65
2018-04-24T04:03:39.894Z,62.65
2018-04-24T04:04:11.478Z,62.63
2018-04-24T04:04:43.072Z,62.66
2018-04-24T04:05:14.694Z,62.70
2018-04-24T04:05:46.272Z,62.70
2018-04-24T04:06:17.858Z,62.70
2018-04-24T04:06:49.496Z,62.75
2018-04-24T04:07:21.093Z,62.74
2018-04-24T04:07:52.697Z,62.79
2018-04-24T04:08:24.286Z,62.85
2018-04-24T04:08:55.852Z,62.90
2018-04-24T04:09:27.438Z,62.91
2018-04-24T04:09:59.066Z,62.90
2018-04-24T04:10:30.695Z,62.91
2018-04-24T04:11:02.298Z,62.94
2018-04-24T04:11:33.929Z,62.96
2018-04-24T04:12:05.527Z,62.99
2018-04-24T04:12:37.137Z,63.01
2018-04-24T04:13:08.726Z,63.02
2018-04-24T04:13:40.314Z,63.04
2018-04-24T04:14:11.898Z,63.09
2018-04-24T04:14:43.502Z,63.09
2018-04-24T04:15:15.091Z,63.09
2018-04-24T04:15:46.746Z,63.08
2018-04-24T04:16:18.334Z,63.08
2018-04-24T04:16:49.941Z,63.07
2018-04-24T04:17:21.554Z,63.11
2018-04-24T04:17:53.166Z,63.14
2018-04-24T04:18:24.766Z,63.17
2018-04-24T04:18:56.341Z,63.18
2018-04-24T04:19:27.936Z,63.18
2018-04-24T04:19:59.536Z,63.22
2018-04-24T04:20:31.126Z,63.15
2018-04-24T04:21:02.775Z,63.13
2018-04-24T04:21:34.370Z,63.14
2018-04-24T04:22:05.954Z,63.17
2018-04-24T04:22:37.557Z,63.13
2018-04-24T04:23:09.157Z,63.13
2018-04-24T04:23:40.756Z,63.15
2018-04-24T04:24:12.373Z,63.21
2018-04-24T04:24:43.966Z,63.20
2018-04-24T04:25:15.572Z,63.18
2018-04-24T04:25:47.217Z,63.17
2018-04-24T04:26:18.826Z,63.22
2018-04-24T04:26:50.414Z,63.18
2018-04-24T04:27:22.017Z,63.15
2018-04-24T04:27:53.596Z,63.17
2018-04-24T04:28:25.197Z,63.13
2018-04-24T04:28:56.797Z,63.07
2018-04-24T04:29:28.383Z,63.06
2018-04-24T04:29:59.985Z,63.04
2018-04-24T04:30:31.574Z,62.98
2018-04-24T04:31:03.207Z,63.03
2018-04-24T04:31:34.819Z,62.99
2018-04-24T04:32:06.402Z,62.95
2018-04-24T04:32:37.973Z,62.95
2018-04-24T04:33:09.547Z,62.93
2018-04-24T04:33:41.117Z,62.85
2018-04-24T04:34:12.692Z,62.84
2018-04-24T04:34:44.342Z,62.79
2018-04-24T04:35:15.916Z,62.77
2018-04-24T04:35:47.530Z,62.75
2018-04-24T04:36:19.124Z,62.72
2018-04-24T04:36:50.720Z,62.71
2018-04-24T04:37:22.342Z,62.68
2018-04-24T04:37:53.930Z,62.73
2018-04-24T04:38:25.531Z,62.69
2018-04-24T04:38:57.115Z,62.66
2018-04-24T04:39:28.727Z,62.65
2018-04-24T04:40:00.394Z,62.67
2018-04-24T04:40:32.001Z,62.62
2018-04-24T04:41:03.614Z,62.64
2018-04-24T04:41:35.210Z,62.60
2018-04-24T04:42:06.790Z,62.65
2018-04-24T04:42:38.376Z,62.66
2018-04-24T04:43:09.962Z,62.66
2018-04-24T04:43:41.532Z,62.61
2018-04-24T04:44:13.101Z,62.61
2018-04-24T04:44:44.738Z,62.58
2018-04-24T04:45:16.367Z,62.57
2018-04-24T04:45:48.025Z,62.56
2018-04-24T04:46:19.598Z,62.57
2018-04-24T04:46:51.206Z,62.53
2018-04-24T04:47:22.804Z,62.49
2018-04-24T04:47:54.457Z,62.40
2018-04-24T04:48:26.022Z,62.41
2018-04-24T04:48:57.614Z,62.38
2018-04-24T04:49:29.202Z,62.37
2018-04-24T04:50:00.810Z,62.37
2018-04-24T04:50:32.426Z,62.32
2018-04-24T04:51:04.164Z,62.30
2018-04-24T04:51:35.868Z,62.28
2018-04-24T04:52:07.412Z,62.28
2018-04-24T04:52:38.992Z,62.23
2018-04-24T04:53:10.569Z,62.23
2018-04-24T04:53:42.164Z,62.29
2018-04-24T04:54:13.754Z,62.24
2018-04-24T04:54:45.361Z,62.21
2018-04-24T04:55:16.940Z,62.17
2018-04-24T04:55:48.529Z,62.18
2018-04-24T04:56:20.180Z,62.17
2018-04-24T04:56:51.767Z,62.15
2018-04-24T04:57:23.388Z,62.09
2018-04-24T04:57:54.974Z,62.13
2018-04-24T04:58:26.558Z,62.07
2018-04-24T04:58:58.166Z,62.01
2018-04-24T04:59:29.749Z,62.01
2018-04-24T05:00:01.351Z,61.98
2018-04-24T05:00:32.990Z,61.89
2018-04-24T05:01:04.601Z,61.85
2018-04-24T05:01:36.214Z,61.75
2018-04-24T05:02:07.821Z,61.70
2018-04-24T05:02:39.501Z,61.78
2018-04-24T05:03:11.099Z,61.73
2018-04-24T05:03:42.677Z,61.75
2018-04-24T05:04:14.262Z,61.80
2018-04-24T05:04:45.857Z,61.79
2018-04-24T05:05:17.513Z,61.82
2018-04-24T05:05:49.072Z,61.80
2018-04-24T05:06:20.691Z,61.84
2018-04-24T05:06:52.297Z,61.80
2018-04-24T05:07:23.878Z,61.77
2018-04-24T05:07:55.492Z,61.73
2018-04-24T05:08:27.102Z,61.71
2018-04-24T05:08:58.690Z,61.71
2018-04-24T05:09:30.264Z,61.72
2018-04-24T05:10:01.890Z,61.68
2018-04-24T05:10:33.489Z,61.68
2018-04-24T05:11:05.094Z,61.66
2018-04-24T05:11:36.697Z,61.71
2018-04-24T05:12:08.385Z,61.80
2018-04-24T05:12:39.904Z,61.74
2018-04-24T05:13:11.513Z,61.77
2018-04-24T05:13:43.089Z,61.78
2018-04-24T05:14:14.713Z,61.80
2018-04-24T05:14:46.285Z,61.78
2018-04-24T05:15:17.894Z,61.79
2018-04-24T05:15:49.502Z,61.82
2018-04-24T05:16:21.110Z,61.84
2018-04-24T05:16:52.693Z,61.86
2018-04-24T05:17:24.288Z,61.88
2018-04-24T05:17:55.877Z,61.88
2018-04-24T05:18:27.457Z,61.87
2018-04-24T05:18:59.066Z,61.86
2018-04-24T05:19:30.734Z,61.85
2018-04-24T05:20:02.314Z,61.82
2018-04-24T05:20:33.906Z,61.86
2018-04-24T05:21:05.476Z,61.89
2018-04-24T05:21:37.093Z,61.95
2018-04-24T05:22:08.702Z,61.98
2018-04-24T05:22:40.290Z,61.89
2018-04-24T05:23:11.893Z,61.98
2018-04-24T05:23:43.478Z,61.98
2018-04-24T05:24:15.090Z,61.93
2018-04-24T05:24:46.749Z,61.89
2018-04-24T05:25:18.344Z,61.91
2018-04-24T05:25:49.941Z,61.94
2018-04-24T05:26:21.530Z,61.99
2018-04-24T05:26:53.103Z,62.00
2018-04-24T05:27:24.709Z,61.97
2018-04-24T05:27:56.337Z,61.91
2018-04-24T05:28:27.925Z,61.92
2018-04-24T05:28:59.534Z,61.95
2018-04-24T05:29:31.146Z,61.96
2018-04-24T05:30:02.734Z,61.91
2018-04-24T05:30:34.322Z,61.84
2018-04-24T05:31:05.934Z,61.87
2018-04-24T05:31:37.533Z,61.88
2018-04-24T05:32:09.128Z,61.91
2018-04-24T05:32:40.745Z,61.94
2018-04-24T05:33:12.320Z,61.89
2018-04-24T05:33:43.934Z,61.92
2018-04-24T05:34:15.523Z,61.96
2018-04-24T05:34:47.190Z,61.93
2018-04-24T05:35:18.772Z,61.87
2018-04-24T05:35:50.472Z,61.89
2018-04-24T05:36:21.995Z,61.94
2018-04-24T05:36:53.606Z,61.92
2018-04-24T05:37:25.188Z,61.93
2018-04-24T05:37:56.770Z,61.97
2018-04-24T05:38:28.345Z,62.03
2018-04-24T05:38:59.933Z,62.04
2018-04-24T05:39:31.542Z,62.02
2018-04-24T05:40:03.169Z,62.02
2018-04-24T05:40:34.773Z,62.05
2018-04-24T05:41:06.381Z,62.02
2018-04-24T05:41:37.986Z,62.07
2018-04-24T05:42:09.594Z,62.04
2018-04-24T05:42:41.197Z,62.01
2018-04-24T05:43:12.796Z,62.05
2018-04-24T05:43:44.446Z,62.06
2018-04-24T05:44:16.058Z,62.05
2018-04-24T05:44:47.674Z,62.05
2018-04-24T05:45:19.330Z,62.02
2018-04-24T05:45:50.889Z,62.01
2018-04-24T05:46:22.500Z,62.01
2018-04-24T05:46:54.086Z,62.05
2018-04-24T05:47:25.689Z,61.96
2018-04-24T05:47:57.298Z,61.93
2018-04-24T05:48:28.982Z,61.93
2018-04-24T05:49:00.580Z,61.91
2018-04-24T05:49:32.160Z,61.92
2018-04-24T05:50:03.765Z,61.92
2018-04-24T05:50:35.378Z,61.89
2018-04-24T05:51:06.952Z,61.90
2018-04-24T05:51:38.535Z,61.89
2018-04-24T05:52:10.126Z,61.86
2018-04-24T05:52:41.707Z,61.83
2018-04-24T05:53:13.300Z,61.81
2018-04-24T05:53:44.933Z,61.82
2018-04-24T05:54:16.546Z,61.82
2018-04-24T05:54:48.158Z,61.82
2018-04-24T05:55:19.749Z,61.81
2018-04-24T05:55:51.334Z,61.78
2018-04-24T05:56:22.937Z,61.79
2018-04-24T05:56:54.540Z,61.77
2018-04-24T05:57:26.125Z,61.76
2018-04-24T05:57:57.710Z,61.77
2018-04-24T05:58:29.314Z,61.78
2018-04-24T05:59:00.942Z,61.79
2018-04-24T05:59:32.530Z,61.79
2018-04-24T06:00:04.172Z,61.85
2018-04-24T06:00:35.766Z,61.87
2018-04-24T06:01:07.350Z,61.84
2018-04-24T06:01:38.938Z,61.85
2018-04-24T06:02:10.526Z,61.86
2018-04-24T06:02:42.133Z,61.89
2018-04-24T06:03:13.722Z,61.89
2018-04-24T06:03:45.293Z,61.94
2018-04-24T06:04:16.878Z,61.92
2018-04-24T06:04:48.504Z,61.97
2018-04-24T06:05:20.142Z,61.98
2018-04-24T06:05:51.725Z,61.92
2018-04-24T06:06:23.297Z,61.92
2018-04-24T06:06:54.869Z,61.90
2018-04-24T06:07:26.477Z,61.89
2018-04-24T06:07:58.090Z,61.94
2018-04-24T06:08:29.713Z,61.85
2018-04-24T06:09:01.310Z,61.87
2018-04-24T06:09:32.890Z,61.91
2018-04-24T06:10:04.461Z,61.89
2018-04-24T06:10:36.098Z,61.91
2018-04-24T06:11:07.702Z,61.85
2018-04-24T06:11:39.310Z,61.83
2018-04-24T06:12:10.924Z,61.86
2018-04-24T06:12:42.542Z,61.81
2018-04-24T06:13:14.130Z,61.80
2018-04-24T06:13:45.716Z,61.80
2018-04-24T06:14:17.307Z,61.83
2018-04-24T06:14:48.890Z,61.81
2018-04-24T06:15:20.479Z,61.77
2018-04-24T06:15:52.138Z,61.81
2018-04-24T06:16:23.725Z,61.77
2018-04-24T06:16:55.320Z,61.78
2018-04-24T06:17:26.913Z,61.70
2018-04-24T06:17:58.516Z,61.68
2018-04-24T06:18:30.126Z,61.62
2018-04-24T06:19:01.714Z,61.62
2018-04-24T06:19:33.324Z,61.54
2018-04-24T06:20:04.933Z,61.59
2018-04-24T06:20:36.518Z,61.57
2018-04-24T06:21:08.106Z,61.51
2018-04-24T06:21:39.719Z,61.50
2018-04-24T06:22:11.306Z,61.46
2018-04-24T06:22:42.946Z,61.48
2018-04-24T06:23:14.553Z,61.49
2018-04-24T06:23:46.162Z,61.49
2018-04-24T06:24:17.751Z,61.52
2018-04-24T06:24:49.358Z,61.50
2018-04-24T06:25:21.017Z,61.49
2018-04-24T06:25:52.630Z,61.51
2018-04-24T06:26:24.218Z,61.47
2018-04-24T06:26:55.822Z,61.48
2018-04-24T06:27:27.429Z,61.51
2018-04-24T06:27:59.032Z,61.50
2018-04-24T06:28:30.671Z,61.52
2018-04-24T06:29:02.221Z,61.52
2018-04-24T06:29:33.819Z,61.52
2018-04-24T06:30:05.409Z,61.52
2018-04-24T06:30:37.048Z,61.54
2018-04-24T06:31:08.658Z,61.58
2018-04-24T06:31:40.246Z,61.63
2018-04-24T06:32:11.850Z,61.66
2018-04-24T06:32:43.506Z,61.72
2018-04-24T06:33:15.100Z,61.73
2018-04-24T06:33:46.711Z,61.75
2018-04-24T06:34:18.307Z,61.66
2018-04-24T06:34:49.880Z,61.66
2018-04-24T06:35:21.482Z,61.63
2018-04-24T06:35:53.102Z,61.66
2018-04-24T06:36:24.761Z,61.64
2018-04-24T06:36:56.387Z,61.62
2018-04-24T06:37:27.988Z,61.61
2018-04-24T06:37:59.585Z,61.60
2018-04-24T06:38:31.170Z,61.56
2018-04-24T06:39:02.767Z,61.54
2018-04-24T06:39:34.350Z,61.51
2018-04-24T06:40:05.920Z,61.48
2018-04-24T06:40:37.493Z,61.46
2018-04-24T06:41:09.084Z,61.41
2018-04-24T06:41:40.664Z,61.40
2018-04-24T06:42:12.403Z,61.41
2018-04-24T06:42:43.948Z,61.37
2018-04-24T06:43:15.557Z,61.36
2018-04-24T06:43:47.149Z,61.38
2018-04-24T06:44:18.720Z,61.43
2018-04-24T06:44:50.302Z,61.42
2018-04-24T06:45:21.896Z,61.40
2018-04-24T06:45:53.481Z,61.43
2018-04-24T06:46:25.069Z,61.43
2018-04-24T06:46:56.658Z,61.44